Time,TemperatureF,DewpointF,PressureIn,WindDirection,WindDirectionDegrees,WindSpeedMPH,WindSpeedGustMPH,Humidity,HourlyPrecipIn,Conditions,Clouds,dailyrainin,SoftwareType,DateUTC
2013-03-20 00:12:00,42.0,14.0,-100.00,NNE,26,2.0,6.0,31,0.00,,,0.00,,2013-03-20 06:12:00,
2013-03-20 00:22:00,42.0,14.0,-100.00,NNE,26,2.0,6.0,31,0.00,,,0.00,,2013-03-20 06:22:00,
2013-03-20 00:32:00,42.0,14.0,-100.00,NNE,26,2.0,6.0,31,0.00,,,0.00,,2013-03-20 06:32:00,
2013-03-20 00:42:00,42.0,14.0,-100.00,NNE,26,2.0,6.0,31,0.00,,,0.00,,2013-03-20 06:42:00,
2013-03-20 00:52:00,42.0,14.0,-100.00,NNE,26,2.0,6.0,31,0.00,,,0.00,,2013-03-20 06:52:00,
2013-03-20 01:12:00,39.0,11.0,-100.00,NNW,348,2.0,5.0,31,0.00,,,0.00,,2013-03-20 07:12:00,
2013-03-20 01:22:00,39.0,11.0,-100.00,NNW,348,2.0,5.0,31,0.00,,,0.00,,2013-03-20 07:22:00,
2013-03-20 01:32:00,39.0,11.0,-100.00,NNW,348,2.0,5.0,31,0.00,,,0.00,,2013-03-20 07:32:00,
2013-03-20 01:42:00,39.0,11.0,-100.00,NNW,348,2.0,5.0,31,0.00,,,0.00,,2013-03-20 07:42:00,
2013-03-20 01:52:00,39.0,11.0,-100.00,NNW,348,2.0,5.0,31,0.00,,,0.00,,2013-03-20 07:52:00,
2013-03-20 02:22:00,34.0,18.0,-100.00,NNE,13,1.0,3.0,51,0.00,,,0.00,,2013-03-20 08:22:00,
2013-03-20 02:32:00,34.0,18.0,-100.00,NNE,13,1.0,3.0,51,0.00,,,0.00,,2013-03-20 08:32:00,
2013-03-20 02:42:00,34.0,18.0,-100.00,NNE,13,1.0,3.0,51,0.00,,,0.00,,2013-03-20 08:42:00,
2013-03-20 02:52:00,34.0,18.0,-100.00,NNE,13,1.0,3.0,51,0.00,,,0.00,,2013-03-20 08:52:00,
2013-03-20 03:12:00,31.0,16.0,-100.00,ENE,64,1.0,2.0,54,0.00,,,0.00,,2013-03-20 09:12:00,
2013-03-20 03:22:00,31.0,16.0,-100.00,ENE,64,1.0,2.0,54,0.00,,,0.00,,2013-03-20 09:22:00,
2013-03-20 03:33:00,31.0,16.0,-100.00,ENE,64,1.0,2.0,54,0.00,,,0.00,,2013-03-20 09:33:00,
2013-03-20 03:43:00,31.0,16.0,-100.00,ENE,64,1.0,2.0,54,0.00,,,0.00,,2013-03-20 09:43:00,
2013-03-20 03:52:00,31.0,16.0,-100.00,ENE,64,1.0,2.0,54,0.00,,,0.00,,2013-03-20 09:52:00,
2013-03-20 04:12:00,28.0,20.0,-100.00,SSE,152,1.0,3.0,71,0.00,,,0.00,,2013-03-20 10:12:00,
2013-03-20 04:23:00,28.0,20.0,-100.00,SSE,152,1.0,3.0,71,0.00,,,0.00,,2013-03-20 10:23:00,
2013-03-20 04:32:00,28.0,20.0,-100.00,SSE,152,1.0,3.0,71,0.00,,,0.00,,2013-03-20 10:32:00,
2013-03-20 04:42:00,28.0,20.0,-100.00,SSE,152,1.0,3.0,71,0.00,,,0.00,,2013-03-20 10:42:00,
2013-03-20 04:52:00,28.0,20.0,-100.00,SSE,152,1.0,3.0,71,0.00,,,0.00,,2013-03-20 10:52:00,
2013-03-20 05:22:00,26.0,18.0,-100.00,SW,229,1.0,3.0,71,0.00,,,0.00,,2013-03-20 11:22:00,
2013-03-20 05:32:00,26.0,18.0,-100.00,SW,229,1.0,3.0,71,0.00,,,0.00,,2013-03-20 11:32:00,
2013-03-20 05:42:00,26.0,18.0,-100.00,SW,229,1.0,3.0,71,0.00,,,0.00,,2013-03-20 11:42:00,
2013-03-20 05:52:00,26.0,18.0,-100.00,SW,229,1.0,3.0,71,0.00,,,0.00,,2013-03-20 11:52:00,
2013-03-20 06:22:00,31.0,13.0,-100.00,West,273,3.0,8.0,46,0.00,,,0.00,,2013-03-20 12:22:00,
2013-03-20 06:32:00,31.0,13.0,-100.00,West,273,3.0,8.0,46,0.00,,,0.00,,2013-03-20 12:32:00,
2013-03-20 06:42:00,31.0,13.0,-100.00,West,273,3.0,8.0,46,0.00,,,0.00,,2013-03-20 12:42:00,
2013-03-20 06:52:00,31.0,13.0,-100.00,West,273,3.0,8.0,46,0.00,,,0.00,,2013-03-20 12:52:00,
2013-03-20 07:22:00,29.0,11.0,-100.00,NNW,343,1.0,4.0,46,0.00,,,0.00,,2013-03-20 13:22:00,
2013-03-20 07:32:00,29.0,11.0,-100.00,NNW,343,1.0,4.0,46,0.00,,,0.00,,2013-03-20 13:32:00,
2013-03-20 07:42:00,29.0,11.0,-100.00,NNW,343,1.0,4.0,46,0.00,,,0.00,,2013-03-20 13:42:00,
2013-03-20 07:52:00,29.0,11.0,-100.00,NNW,343,1.0,4.0,46,0.00,,,0.00,,2013-03-20 13:52:00,
2013-03-20 08:12:00,31.0,17.0,-100.00,WNW,301,1.0,3.0,56,0.00,,,0.00,,2013-03-20 14:12:00,
2013-03-20 08:23:00,31.0,17.0,-100.00,WNW,301,1.0,3.0,56,0.00,,,0.00,,2013-03-20 14:23:00,
2013-03-20 08:33:00,31.0,17.0,-100.00,WNW,301,1.0,3.0,56,0.00,,,0.00,,2013-03-20 14:33:00,
2013-03-20 08:42:00,31.0,17.0,-100.00,WNW,301,1.0,3.0,56,0.00,,,0.00,,2013-03-20 14:42:00,
2013-03-20 08:52:00,31.0,17.0,-100.00,WNW,301,1.0,3.0,56,0.00,,,0.00,,2013-03-20 14:52:00,
2013-03-20 09:12:00,42.0,16.0,-100.00,NNW,344,2.0,7.0,34,0.00,,,0.00,,2013-03-20 15:12:00,
2013-03-20 09:22:00,42.0,16.0,-100.00,NNW,344,2.0,7.0,34,0.00,,,0.00,,2013-03-20 15:22:00,
2013-03-20 09:33:00,42.0,16.0,-100.00,NNW,344,2.0,7.0,34,0.00,,,0.00,,2013-03-20 15:33:00,
2013-03-20 09:43:00,42.0,16.0,-100.00,NNW,344,2.0,7.0,34,0.00,,,0.00,,2013-03-20 15:43:00,
2013-03-20 09:52:00,42.0,16.0,-100.00,NNW,344,2.0,7.0,34,0.00,,,0.00,,2013-03-20 15:52:00,
2013-03-20 10:12:00,45.0,15.0,-100.00,NE,36,4.0,9.0,30,0.00,,,0.00,,2013-03-20 16:12:00,
2013-03-20 10:23:00,45.0,15.0,-100.00,NE,36,4.0,9.0,30,0.00,,,0.00,,2013-03-20 16:23:00,
2013-03-20 10:33:00,45.0,15.0,-100.00,NE,36,4.0,9.0,30,0.00,,,0.00,,2013-03-20 16:33:00,
2013-03-20 10:42:00,45.0,15.0,-100.00,NE,36,4.0,9.0,30,0.00,,,0.00,,2013-03-20 16:42:00,
2013-03-20 10:52:00,45.0,15.0,-100.00,NE,36,4.0,9.0,30,0.00,,,0.00,,2013-03-20 16:52:00,
2013-03-20 11:12:00,52.0,19.0,-100.00,North,352,4.0,9.0,27,0.00,,,0.00,,2013-03-20 17:12:00,
2013-03-20 11:22:00,52.0,19.0,-100.00,North,352,4.0,9.0,27,0.00,,,0.00,,2013-03-20 17:22:00,
2013-03-20 11:32:00,52.0,19.0,-100.00,North,352,4.0,9.0,27,0.00,,,0.00,,2013-03-20 17:32:00,
2013-03-20 11:42:00,52.0,19.0,-100.00,North,352,4.0,9.0,27,0.00,,,0.00,,2013-03-20 17:42:00,
2013-03-20 11:52:00,52.0,19.0,-100.00,North,352,4.0,9.0,27,0.00,,,0.00,,2013-03-20 17:52:00,
2013-03-20 12:12:00,57.0,19.0,-100.00,SSE,150,2.0,7.0,22,0.00,,,0.00,,2013-03-20 18:12:00,
2013-03-20 12:22:00,57.0,19.0,-100.00,SSE,150,2.0,7.0,22,0.00,,,0.00,,2013-03-20 18:22:00,
2013-03-20 12:33:00,57.0,19.0,-100.00,SSE,150,2.0,7.0,22,0.00,,,0.00,,2013-03-20 18:33:00,
2013-03-20 12:42:00,57.0,19.0,-100.00,SSE,150,2.0,7.0,22,0.00,,,0.00,,2013-03-20 18:42:00,
2013-03-20 12:52:00,57.0,19.0,-100.00,SSE,150,2.0,7.0,22,0.00,,,0.00,,2013-03-20 18:52:00,
2013-03-20 13:22:00,57.0,16.0,-100.00,South,174,5.0,12.0,20,0.00,,,0.00,,2013-03-20 19:22:00,
2013-03-20 13:32:00,57.0,16.0,-100.00,South,174,5.0,12.0,20,0.00,,,0.00,,2013-03-20 19:32:00,
2013-03-20 13:42:00,57.0,16.0,-100.00,South,174,5.0,12.0,20,0.00,,,0.00,,2013-03-20 19:42:00,
2013-03-20 13:52:00,57.0,16.0,-100.00,South,174,5.0,12.0,20,0.00,,,0.00,,2013-03-20 19:52:00,
2013-03-20 14:13:00,61.0,18.0,-100.00,SSE,149,5.0,12.0,19,0.00,,,0.00,,2013-03-20 20:13:00,
2013-03-20 14:22:00,61.0,18.0,-100.00,SSE,149,5.0,12.0,19,0.00,,,0.00,,2013-03-20 20:22:00,
2013-03-20 14:32:00,61.0,18.0,-100.00,SSE,149,5.0,12.0,19,0.00,,,0.00,,2013-03-20 20:32:00,
2013-03-20 14:42:00,61.0,18.0,-100.00,SSE,149,5.0,12.0,19,0.00,,,0.00,,2013-03-20 20:42:00,
2013-03-20 14:52:00,61.0,18.0,-100.00,SSE,149,5.0,12.0,19,0.00,,,0.00,,2013-03-20 20:52:00,
2013-03-20 15:12:00,61.0,16.0,-100.00,SSE,157,7.0,14.0,17,0.00,,,0.00,,2013-03-20 21:12:00,
2013-03-20 15:22:00,61.0,16.0,-100.00,SSE,157,7.0,14.0,17,0.00,,,0.00,,2013-03-20 21:22:00,
2013-03-20 15:33:00,61.0,16.0,-100.00,SSE,157,7.0,14.0,17,0.00,,,0.00,,2013-03-20 21:33:00,
2013-03-20 15:42:00,61.0,16.0,-100.00,SSE,157,7.0,14.0,17,0.00,,,0.00,,2013-03-20 21:42:00,
2013-03-20 15:52:00,61.0,16.0,-100.00,SSE,157,7.0,14.0,17,0.00,,,0.00,,2013-03-20 21:52:00,
2013-03-20 16:23:00,63.0,16.0,-100.00,South,171,6.0,13.0,16,0.00,,,0.00,,2013-03-20 22:23:00,
2013-03-20 16:33:00,63.0,16.0,-100.00,South,171,6.0,13.0,16,0.00,,,0.00,,2013-03-20 22:33:00,
2013-03-20 16:42:00,63.0,16.0,-100.00,South,171,6.0,13.0,16,0.00,,,0.00,,2013-03-20 22:42:00,
2013-03-20 16:52:00,63.0,16.0,-100.00,South,171,6.0,13.0,16,0.00,,,0.00,,2013-03-20 22:52:00,
2013-03-20 17:12:00,63.0,15.0,-100.00,South,169,7.0,16.0,15,0.00,,,0.00,,2013-03-20 23:12:00,
2013-03-20 17:22:00,63.0,15.0,-100.00,South,169,7.0,16.0,15,0.00,,,0.00,,2013-03-20 23:22:00,
2013-03-20 17:32:00,63.0,15.0,-100.00,South,169,7.0,16.0,15,0.00,,,0.00,,2013-03-20 23:32:00,
2013-03-20 17:42:00,63.0,15.0,-100.00,South,169,7.0,16.0,15,0.00,,,0.00,,2013-03-20 23:42:00,
2013-03-20 17:52:00,63.0,15.0,-100.00,South,169,7.0,16.0,15,0.00,,,0.00,,2013-03-20 23:52:00,
2013-03-20 18:12:00,62.0,15.0,-100.00,SSE,167,5.0,12.0,16,0.00,,,0.00,,2013-03-21 00:12:00,
2013-03-20 18:23:00,62.0,15.0,-100.00,SSE,167,5.0,12.0,16,0.00,,,0.00,,2013-03-21 00:23:00,
2013-03-20 18:33:00,62.0,15.0,-100.00,SSE,167,5.0,12.0,16,0.00,,,0.00,,2013-03-21 00:33:00,
2013-03-20 18:42:00,62.0,15.0,-100.00,SSE,167,5.0,12.0,16,0.00,,,0.00,,2013-03-21 00:42:00,
2013-03-20 18:52:00,62.0,15.0,-100.00,SSE,167,5.0,12.0,16,0.00,,,0.00,,2013-03-21 00:52:00,
2013-03-20 19:12:00,60.0,16.0,-100.00,SSE,163,4.0,10.0,18,0.00,,,0.00,,2013-03-21 01:12:00,
2013-03-20 19:22:00,60.0,16.0,-100.00,SSE,163,4.0,10.0,18,0.00,,,0.00,,2013-03-21 01:22:00,
2013-03-20 19:32:00,60.0,16.0,-100.00,SSE,163,4.0,10.0,18,0.00,,,0.00,,2013-03-21 01:32:00,
2013-03-20 19:42:00,60.0,16.0,-100.00,SSE,163,4.0,10.0,18,0.00,,,0.00,,2013-03-21 01:42:00,
2013-03-20 19:52:00,60.0,16.0,-100.00,SSE,163,4.0,10.0,18,0.00,,,0.00,,2013-03-21 01:52:00,
2013-03-20 20:22:00,55.0,16.0,-100.00,West,266,1.0,4.0,21,0.00,,,0.00,,2013-03-21 02:22:00,
2013-03-20 20:32:00,55.0,16.0,-100.00,West,266,1.0,4.0,21,0.00,,,0.00,,2013-03-21 02:32:00,
2013-03-20 20:42:00,55.0,16.0,-100.00,West,266,1.0,4.0,21,0.00,,,0.00,,2013-03-21 02:42:00,
2013-03-20 20:51:00,55.0,16.0,-100.00,West,266,1.0,4.0,21,0.00,,,0.00,,2013-03-21 02:51:00,
2013-03-20 20:53:00,55.0,17.0,-100.00,SSE,165,2.0,9.0,22,0.00,,,0.00,,2013-03-21 02:53:00,
2013-03-20 21:12:00,55.0,17.0,-100.00,SSE,165,2.0,9.0,22,0.00,,,0.00,,2013-03-21 03:12:00,
2013-03-20 21:22:00,55.0,17.0,-100.00,SSE,165,2.0,9.0,22,0.00,,,0.00,,2013-03-21 03:22:00,
2013-03-20 21:33:00,55.0,17.0,-100.00,SSE,165,2.0,9.0,22,0.00,,,0.00,,2013-03-21 03:33:00,
2013-03-20 21:43:00,55.0,17.0,-100.00,SSE,165,2.0,9.0,22,0.00,,,0.00,,2013-03-21 03:43:00,
2013-03-20 21:53:00,50.0,18.0,-100.00,East,93,1.0,2.0,28,0.00,,,0.00,,2013-03-21 03:53:00,
2013-03-20 22:23:00,50.0,18.0,-100.00,East,93,1.0,2.0,28,0.00,,,0.00,,2013-03-21 04:23:00,
2013-03-20 22:33:00,50.0,18.0,-100.00,East,93,1.0,2.0,28,0.00,,,0.00,,2013-03-21 04:33:00,
2013-03-20 22:43:00,50.0,18.0,-100.00,East,93,1.0,2.0,28,0.00,,,0.00,,2013-03-21 04:43:00,
2013-03-20 23:22:00,59.0,27.0,-100.00,NW,319,4.0,10.0,29,0.00,,,0.00,,2013-03-21 05:22:00,
2013-03-20 23:32:00,59.0,27.0,-100.00,NW,319,4.0,10.0,29,0.00,,,0.00,,2013-03-21 05:32:00,
2013-03-20 23:43:00,59.0,27.0,-100.00,NW,319,4.0,10.0,29,0.00,,,0.00,,2013-03-21 05:43:00,
2013-03-20 23:52:00,59.0,27.0,-100.00,NW,319,4.0,10.0,29,0.00,,,0.00,,2013-03-21 05:52:00,